sensor_id;sensor_type;location;lat;lon;timestamp;P1;durP1;ratioP1;P2;durP2;ratioP2
82727;SDS011;72459;50.110;8.750;2023-10-19T00:00:45;15.68;;;8.50;;
82727;SDS011;72459;50.110;8.750;2023-10-19T00:03:13;14.68;;;8.85;;
82727;SDS011;72459;50.110;8.750;2023-10-19T00:05:39;12.20;;;7.85;;
82727;SDS011;72459;50.110;8.750;2023-10-19T00:08:06;11.10;;;7.28;;
82727;SDS011;72459;50.110;8.750;2023-10-19T00:10:43;11.13;;;7.47;;
82727;SDS011;72459;50.110;8.750;2023-10-19T00:13:15;14.23;;;8.48;;
82727;SDS011;72459;50.110;8.750;2023-10-19T00:15:44;15.27;;;8.57;;
82727;SDS011;72459;50.110;8.750;2023-10-19T00:18:14;14.35;;;8.70;;
82727;SDS011;72459;50.110;8.750;2023-10-19T00:20:50;17.75;;;9.82;;
82727;SDS011;72459;50.110;8.750;2023-10-19T00:23:17;13.90;;;8.63;;
82727;SDS011;72459;50.110;8.750;2023-10-19T00:25:48;14.70;;;8.98;;
82727;SDS011;72459;50.110;8.750;2023-10-19T00:28:16;14.18;;;9.40;;
82727;SDS011;72459;50.110;8.750;2023-10-19T00:30:44;14.45;;;8.70;;
82727;SDS011;72459;50.110;8.750;2023-10-19T00:33:13;14.40;;;8.93;;
82727;SDS011;72459;50.110;8.750;2023-10-19T00:35:51;13.38;;;8.40;;
82727;SDS011;72459;50.110;8.750;2023-10-19T00:38:32;12.95;;;8.52;;
82727;SDS011;72459;50.110;8.750;2023-10-19T00:41:00;14.23;;;9.20;;
82727;SDS011;72459;50.110;8.750;2023-10-19T00:43:32;14.38;;;8.55;;
82727;SDS011;72459;50.110;8.750;2023-10-19T00:46:03;14.13;;;7.85;;
82727;SDS011;72459;50.110;8.750;2023-10-19T00:48:33;13.07;;;8.25;;
82727;SDS011;72459;50.110;8.750;2023-10-19T00:50:59;14.10;;;8.38;;
82727;SDS011;72459;50.110;8.750;2023-10-19T00:53:35;14.70;;;8.57;;
82727;SDS011;72459;50.110;8.750;2023-10-19T00:56:03;14.00;;;8.68;;
82727;SDS011;72459;50.110;8.750;2023-10-19T00:58:34;13.65;;;8.27;;
82727;SDS011;72459;50.110;8.750;2023-10-19T01:01:04;12.77;;;7.90;;
82727;SDS011;72459;50.110;8.750;2023-10-19T01:03:34;13.20;;;8.90;;
82727;SDS011;72459;50.110;8.750;2023-10-19T01:06:02;13.45;;;8.18;;
82727;SDS011;72459;50.110;8.750;2023-10-19T01:08:35;12.13;;;8.45;;
82727;SDS011;72459;50.110;8.750;2023-10-19T01:11:06;12.40;;;8.18;;
82727;SDS011;72459;50.110;8.750;2023-10-19T01:13:37;12.80;;;8.48;;
82727;SDS011;72459;50.110;8.750;2023-10-19T01:16:03;15.18;;;9.15;;
82727;SDS011;72459;50.110;8.750;2023-10-19T01:18:30;14.25;;;9.40;;
82727;SDS011;72459;50.110;8.750;2023-10-19T01:20:58;14.85;;;9.23;;
82727;SDS011;72459;50.110;8.750;2023-10-19T01:23:30;14.82;;;8.50;;
82727;SDS011;72459;50.110;8.750;2023-10-19T01:25:56;13.52;;;8.75;;
82727;SDS011;72459;50.110;8.750;2023-10-19T01:28:30;12.10;;;8.07;;
82727;SDS011;72459;50.110;8.750;2023-10-19T01:31:05;12.63;;;7.68;;
82727;SDS011;72459;50.110;8.750;2023-10-19T01:33:33;12.02;;;7.47;;
82727;SDS011;72459;50.110;8.750;2023-10-19T01:36:02;12.30;;;8.20;;
82727;SDS011;72459;50.110;8.750;2023-10-19T01:38:40;13.02;;;8.52;;
82727;SDS011;72459;50.110;8.750;2023-10-19T01:41:06;13.73;;;8.32;;
82727;SDS011;72459;50.110;8.750;2023-10-19T01:43:42;16.15;;;9.45;;
82727;SDS011;72459;50.110;8.750;2023-10-19T01:46:08;14.93;;;9.02;;
82727;SDS011;72459;50.110;8.750;2023-10-19T01:48:41;14.02;;;8.80;;
82727;SDS011;72459;50.110;8.750;2023-10-19T01:51:07;12.55;;;7.65;;
82727;SDS011;72459;50.110;8.750;2023-10-19T01:53:37;14.73;;;9.32;;
82727;SDS011;72459;50.110;8.750;2023-10-19T01:56:08;15.30;;;9.13;;
82727;SDS011;72459;50.110;8.750;2023-10-19T01:58:37;14.55;;;8.43;;
82727;SDS011;72459;50.110;8.750;2023-10-19T02:01:08;12.52;;;8.70;;
82727;SDS011;72459;50.110;8.750;2023-10-19T02:03:35;12.50;;;8.05;;
82727;SDS011;72459;50.110;8.750;2023-10-19T02:06:02;12.02;;;7.95;;
82727;SDS011;72459;50.110;8.750;2023-10-19T02:08:35;12.75;;;8.32;;
82727;SDS011;72459;50.110;8.750;2023-10-19T02:11:03;11.20;;;8.00;;
82727;SDS011;72459;50.110;8.750;2023-10-19T02:13:38;13.38;;;8.75;;
82727;SDS011;72459;50.110;8.750;2023-10-19T02:16:04;13.80;;;9.18;;
82727;SDS011;72459;50.110;8.750;2023-10-19T02:18:31;14.35;;;9.55;;
82727;SDS011;72459;50.110;8.750;2023-10-19T02:21:00;14.98;;;9.75;;
82727;SDS011;72459;50.110;8.750;2023-10-19T02:23:31;15.52;;;8.88;;
82727;SDS011;72459;50.110;8.750;2023-10-19T02:26:01;15.38;;;9.43;;
82727;SDS011;72459;50.110;8.750;2023-10-19T02:30:56;14.43;;;9.10;;
82727;SDS011;72459;50.110;8.750;2023-10-19T02:33:23;14.43;;;8.75;;
82727;SDS011;72459;50.110;8.750;2023-10-19T02:35:51;13.10;;;9.00;;
82727;SDS011;72459;50.110;8.750;2023-10-19T02:38:17;14.70;;;9.15;;
82727;SDS011;72459;50.110;8.750;2023-10-19T02:40:42;15.10;;;9.80;;
82727;SDS011;72459;50.110;8.750;2023-10-19T02:43:07;16.50;;;9.88;;
82727;SDS011;72459;50.110;8.750;2023-10-19T02:45:34;15.73;;;9.80;;
82727;SDS011;72459;50.110;8.750;2023-10-19T02:47:59;15.27;;;9.02;;
82727;SDS011;72459;50.110;8.750;2023-10-19T02:50:25;15.95;;;9.13;;
82727;SDS011;72459;50.110;8.750;2023-10-19T02:52:51;15.43;;;9.88;;
82727;SDS011;72459;50.110;8.750;2023-10-19T02:55:18;15.05;;;9.63;;
82727;SDS011;72459;50.110;8.750;2023-10-19T02:57:48;16.67;;;10.15;;
82727;SDS011;72459;50.110;8.750;2023-10-19T03:00:15;14.73;;;9.60;;
82727;SDS011;72459;50.110;8.750;2023-10-19T03:02:44;16.75;;;9.95;;
82727;SDS011;72459;50.110;8.750;2023-10-19T03:05:10;14.18;;;9.43;;
82727;SDS011;72459;50.110;8.750;2023-10-19T03:07:42;18.20;;;9.80;;
82727;SDS011;72459;50.110;8.750;2023-10-19T03:10:10;16.98;;;10.18;;
82727;SDS011;72459;50.110;8.750;2023-10-19T03:12:56;14.88;;;9.38;;
82727;SDS011;72459;50.110;8.750;2023-10-19T03:15:22;15.50;;;9.90;;
82727;SDS011;72459;50.110;8.750;2023-10-19T03:17:48;15.00;;;9.45;;
82727;SDS011;72459;50.110;8.750;2023-10-19T03:20:14;18.08;;;9.88;;
82727;SDS011;72459;50.110;8.750;2023-10-19T03:22:41;15.57;;;10.68;;
82727;SDS011;72459;50.110;8.750;2023-10-19T03:25:07;15.60;;;10.02;;
82727;SDS011;72459;50.110;8.750;2023-10-19T03:27:51;16.15;;;9.80;;
82727;SDS011;72459;50.110;8.750;2023-10-19T03:30:18;16.95;;;10.18;;
82727;SDS011;72459;50.110;8.750;2023-10-19T03:32:44;16.33;;;10.20;;
82727;SDS011;72459;50.110;8.750;2023-10-19T03:35:09;16.65;;;9.70;;
82727;SDS011;72459;50.110;8.750;2023-10-19T03:37:40;17.70;;;11.18;;
82727;SDS011;72459;50.110;8.750;2023-10-19T03:40:06;15.50;;;10.15;;
82727;SDS011;72459;50.110;8.750;2023-10-19T03:42:34;15.88;;;9.52;;
82727;SDS011;72459;50.110;8.750;2023-10-19T03:45:06;13.77;;;8.82;;
82727;SDS011;72459;50.110;8.750;2023-10-19T03:47:38;14.30;;;9.82;;
82727;SDS011;72459;50.110;8.750;2023-10-19T03:50:04;17.05;;;10.50;;
82727;SDS011;72459;50.110;8.750;2023-10-19T03:52:39;17.38;;;10.15;;
82727;SDS011;72459;50.110;8.750;2023-10-19T03:55:04;15.73;;;10.07;;
82727;SDS011;72459;50.110;8.750;2023-10-19T03:57:36;15.35;;;9.50;;
82727;SDS011;72459;50.110;8.750;2023-10-19T04:00:06;14.60;;;9.27;;
82727;SDS011;72459;50.110;8.750;2023-10-19T04:02:40;16.42;;;10.50;;
82727;SDS011;72459;50.110;8.750;2023-10-19T04:05:07;15.68;;;10.25;;
82727;SDS011;72459;50.110;8.750;2023-10-19T04:07:40;14.55;;;10.25;;
82727;SDS011;72459;50.110;8.750;2023-10-19T04:10:07;16.85;;;10.23;;
82727;SDS011;72459;50.110;8.750;2023-10-19T04:12:33;17.85;;;10.90;;
82727;SDS011;72459;50.110;8.750;2023-10-19T04:15:06;15.32;;;10.10;;
82727;SDS011;72459;50.110;8.750;2023-10-19T04:17:37;17.30;;;10.25;;
82727;SDS011;72459;50.110;8.750;2023-10-19T04:20:08;16.63;;;9.85;;
82727;SDS011;72459;50.110;8.750;2023-10-19T04:22:40;15.07;;;9.65;;
82727;SDS011;72459;50.110;8.750;2023-10-19T04:25:05;18.70;;;9.98;;
82727;SDS011;72459;50.110;8.750;2023-10-19T04:27:31;17.38;;;10.55;;
82727;SDS011;72459;50.110;8.750;2023-10-19T04:30:00;17.15;;;10.52;;
82727;SDS011;72459;50.110;8.750;2023-10-19T04:32:27;16.20;;;10.38;;
82727;SDS011;72459;50.110;8.750;2023-10-19T04:34:53;18.92;;;12.00;;
82727;SDS011;72459;50.110;8.750;2023-10-19T04:37:18;16.92;;;9.98;;
82727;SDS011;72459;50.110;8.750;2023-10-19T04:39:46;15.80;;;10.43;;
82727;SDS011;72459;50.110;8.750;2023-10-19T04:42:14;15.52;;;9.93;;
82727;SDS011;72459;50.110;8.750;2023-10-19T04:44:39;14.55;;;9.68;;
82727;SDS011;72459;50.110;8.750;2023-10-19T04:47:05;16.55;;;10.35;;
82727;SDS011;72459;50.110;8.750;2023-10-19T04:49:30;16.15;;;9.98;;
82727;SDS011;72459;50.110;8.750;2023-10-19T04:51:56;14.13;;;9.27;;
82727;SDS011;72459;50.110;8.750;2023-10-19T04:54:21;14.90;;;10.07;;
82727;SDS011;72459;50.110;8.750;2023-10-19T04:56:46;15.10;;;9.80;;
82727;SDS011;72459;50.110;8.750;2023-10-19T04:59:13;17.75;;;10.88;;
82727;SDS011;72459;50.110;8.750;2023-10-19T05:01:38;14.88;;;9.10;;
82727;SDS011;72459;50.110;8.750;2023-10-19T05:04:06;14.60;;;9.70;;
82727;SDS011;72459;50.110;8.750;2023-10-19T05:06:31;16.73;;;10.05;;
82727;SDS011;72459;50.110;8.750;2023-10-19T05:08:57;15.15;;;9.85;;
82727;SDS011;72459;50.110;8.750;2023-10-19T05:11:22;16.08;;;10.25;;
82727;SDS011;72459;50.110;8.750;2023-10-19T05:13:48;16.15;;;10.98;;
82727;SDS011;72459;50.110;8.750;2023-10-19T05:16:13;16.45;;;10.77;;
82727;SDS011;72459;50.110;8.750;2023-10-19T05:18:39;14.27;;;9.27;;
82727;SDS011;72459;50.110;8.750;2023-10-19T05:21:04;18.45;;;10.25;;
82727;SDS011;72459;50.110;8.750;2023-10-19T05:23:30;19.02;;;11.63;;
82727;SDS011;72459;50.110;8.750;2023-10-19T05:26:03;16.23;;;9.60;;
82727;SDS011;72459;50.110;8.750;2023-10-19T05:28:29;16.20;;;10.50;;
82727;SDS011;72459;50.110;8.750;2023-10-19T05:30:55;19.98;;;11.25;;
82727;SDS011;72459;50.110;8.750;2023-10-19T05:33:22;16.95;;;11.07;;
82727;SDS011;72459;50.110;8.750;2023-10-19T05:35:49;18.50;;;11.73;;
82727;SDS011;72459;50.110;8.750;2023-10-19T05:38:15;20.58;;;10.88;;
82727;SDS011;72459;50.110;8.750;2023-10-19T05:40:41;18.67;;;11.45;;
82727;SDS011;72459;50.110;8.750;2023-10-19T05:43:08;19.42;;;10.98;;
82727;SDS011;72459;50.110;8.750;2023-10-19T05:45:34;19.00;;;11.43;;
82727;SDS011;72459;50.110;8.750;2023-10-19T05:48:01;18.55;;;11.40;;
82727;SDS011;72459;50.110;8.750;2023-10-19T05:50:28;18.55;;;10.82;;
82727;SDS011;72459;50.110;8.750;2023-10-19T05:52:54;19.25;;;10.45;;
82727;SDS011;72459;50.110;8.750;2023-10-19T05:55:19;19.00;;;10.13;;
82727;SDS011;72459;50.110;8.750;2023-10-19T05:57:46;17.70;;;10.70;;
82727;SDS011;72459;50.110;8.750;2023-10-19T06:00:12;18.90;;;10.32;;
82727;SDS011;72459;50.110;8.750;2023-10-19T06:02:39;19.73;;;11.45;;
82727;SDS011;72459;50.110;8.750;2023-10-19T06:05:08;37.78;;;22.10;;
82727;SDS011;72459;50.110;8.750;2023-10-19T06:07:34;18.75;;;11.90;;
82727;SDS011;72459;50.110;8.750;2023-10-19T06:09:59;18.42;;;10.40;;
82727;SDS011;72459;50.110;8.750;2023-10-19T06:12:29;19.60;;;10.80;;
82727;SDS011;72459;50.110;8.750;2023-10-19T06:14:54;18.30;;;11.13;;
82727;SDS011;72459;50.110;8.750;2023-10-19T06:17:20;18.70;;;10.73;;
82727;SDS011;72459;50.110;8.750;2023-10-19T06:19:45;18.65;;;11.45;;
82727;SDS011;72459;50.110;8.750;2023-10-19T06:22:11;17.93;;;9.87;;
82727;SDS011;72459;50.110;8.750;2023-10-19T06:24:37;15.90;;;10.15;;
82727;SDS011;72459;50.110;8.750;2023-10-19T06:27:02;17.75;;;10.60;;
82727;SDS011;72459;50.110;8.750;2023-10-19T06:29:29;18.70;;;10.48;;
82727;SDS011;72459;50.110;8.750;2023-10-19T06:31:54;19.33;;;11.43;;
82727;SDS011;72459;50.110;8.750;2023-10-19T06:34:19;19.85;;;11.15;;
82727;SDS011;72459;50.110;8.750;2023-10-19T06:36:45;19.77;;;11.50;;
82727;SDS011;72459;50.110;8.750;2023-10-19T06:39:11;21.10;;;11.48;;
82727;SDS011;72459;50.110;8.750;2023-10-19T06:41:38;19.25;;;11.32;;
82727;SDS011;72459;50.110;8.750;2023-10-19T06:44:04;23.73;;;11.85;;
82727;SDS011;72459;50.110;8.750;2023-10-19T06:46:31;20.38;;;11.82;;
82727;SDS011;72459;50.110;8.750;2023-10-19T06:48:57;27.95;;;14.50;;
82727;SDS011;72459;50.110;8.750;2023-10-19T06:51:25;29.30;;;14.93;;
82727;SDS011;72459;50.110;8.750;2023-10-19T06:53:52;22.38;;;13.68;;
82727;SDS011;72459;50.110;8.750;2023-10-19T06:56:18;25.13;;;13.25;;
82727;SDS011;72459;50.110;8.750;2023-10-19T06:58:44;22.80;;;13.20;;
82727;SDS011;72459;50.110;8.750;2023-10-19T07:01:09;26.95;;;13.73;;
82727;SDS011;72459;50.110;8.750;2023-10-19T07:03:35;32.03;;;14.68;;
82727;SDS011;72459;50.110;8.750;2023-10-19T07:06:03;25.27;;;13.55;;
82727;SDS011;72459;50.110;8.750;2023-10-19T07:08:28;28.25;;;14.20;;
82727;SDS011;72459;50.110;8.750;2023-10-19T07:10:54;26.10;;;14.25;;
82727;SDS011;72459;50.110;8.750;2023-10-19T07:13:20;28.83;;;14.00;;
82727;SDS011;72459;50.110;8.750;2023-10-19T07:15:47;30.52;;;15.30;;
82727;SDS011;72459;50.110;8.750;2023-10-19T07:18:14;28.63;;;15.35;;
82727;SDS011;72459;50.110;8.750;2023-10-19T07:20:40;27.75;;;13.68;;
82727;SDS011;72459;50.110;8.750;2023-10-19T07:23:07;27.50;;;14.63;;
82727;SDS011;72459;50.110;8.750;2023-10-19T07:25:52;26.52;;;13.95;;
82727;SDS011;72459;50.110;8.750;2023-10-19T07:28:21;28.80;;;15.30;;
82727;SDS011;72459;50.110;8.750;2023-10-19T07:30:47;30.13;;;14.35;;
82727;SDS011;72459;50.110;8.750;2023-10-19T07:33:14;26.58;;;15.32;;
82727;SDS011;72459;50.110;8.750;2023-10-19T07:35:43;21.60;;;12.43;;
82727;SDS011;72459;50.110;8.750;2023-10-19T07:38:12;23.90;;;13.80;;
82727;SDS011;72459;50.110;8.750;2023-10-19T07:40:39;27.55;;;14.68;;
82727;SDS011;72459;50.110;8.750;2023-10-19T07:43:04;26.42;;;14.63;;
82727;SDS011;72459;50.110;8.750;2023-10-19T07:45:30;26.58;;;13.75;;
82727;SDS011;72459;50.110;8.750;2023-10-19T07:47:56;26.83;;;14.00;;
82727;SDS011;72459;50.110;8.750;2023-10-19T07:50:22;25.75;;;14.40;;
82727;SDS011;72459;50.110;8.750;2023-10-19T07:52:52;37.20;;;17.35;;
82727;SDS011;72459;50.110;8.750;2023-10-19T07:55:20;31.08;;;16.05;;
82727;SDS011;72459;50.110;8.750;2023-10-19T07:57:48;32.30;;;16.70;;
82727;SDS011;72459;50.110;8.750;2023-10-19T08:00:19;30.60;;;15.88;;
82727;SDS011;72459;50.110;8.750;2023-10-19T08:02:45;27.42;;;13.95;;
82727;SDS011;72459;50.110;8.750;2023-10-19T08:05:15;29.88;;;15.30;;
82727;SDS011;72459;50.110;8.750;2023-10-19T08:07:45;28.52;;;14.27;;
82727;SDS011;72459;50.110;8.750;2023-10-19T08:10:15;27.00;;;15.13;;
82727;SDS011;72459;50.110;8.750;2023-10-19T08:15:11;30.33;;;15.75;;
82727;SDS011;72459;50.110;8.750;2023-10-19T08:17:38;28.73;;;15.75;;
82727;SDS011;72459;50.110;8.750;2023-10-19T08:20:05;30.65;;;15.27;;
82727;SDS011;72459;50.110;8.750;2023-10-19T08:22:34;27.08;;;15.38;;
82727;SDS011;72459;50.110;8.750;2023-10-19T08:25:01;27.60;;;15.82;;
82727;SDS011;72459;50.110;8.750;2023-10-19T08:29:55;29.50;;;15.00;;
82727;SDS011;72459;50.110;8.750;2023-10-19T08:32:20;28.00;;;15.18;;
82727;SDS011;72459;50.110;8.750;2023-10-19T08:34:47;27.55;;;15.40;;
82727;SDS011;72459;50.110;8.750;2023-10-19T08:37:12;28.15;;;16.00;;
82727;SDS011;72459;50.110;8.750;2023-10-19T08:39:38;32.90;;;15.57;;
82727;SDS011;72459;50.110;8.750;2023-10-19T08:42:03;31.50;;;14.85;;
82727;SDS011;72459;50.110;8.750;2023-10-19T08:44:30;35.38;;;17.33;;
82727;SDS011;72459;50.110;8.750;2023-10-19T08:46:56;30.42;;;15.68;;
82727;SDS011;72459;50.110;8.750;2023-10-19T08:49:22;29.85;;;15.80;;
82727;SDS011;72459;50.110;8.750;2023-10-19T08:51:48;30.83;;;16.30;;
82727;SDS011;72459;50.110;8.750;2023-10-19T08:54:14;31.90;;;16.45;;
82727;SDS011;72459;50.110;8.750;2023-10-19T08:56:40;29.52;;;17.00;;
82727;SDS011;72459;50.110;8.750;2023-10-19T08:59:07;32.60;;;16.90;;
82727;SDS011;72459;50.110;8.750;2023-10-19T09:01:32;31.98;;;16.08;;
82727;SDS011;72459;50.110;8.750;2023-10-19T09:04:01;35.63;;;17.75;;
82727;SDS011;72459;50.110;8.750;2023-10-19T09:06:28;30.48;;;16.23;;
82727;SDS011;72459;50.110;8.750;2023-10-19T09:08:54;33.10;;;17.00;;
82727;SDS011;72459;50.110;8.750;2023-10-19T09:11:22;33.40;;;17.35;;
82727;SDS011;72459;50.110;8.750;2023-10-19T09:13:50;32.00;;;16.80;;
82727;SDS011;72459;50.110;8.750;2023-10-19T09:16:18;31.75;;;16.45;;
82727;SDS011;72459;50.110;8.750;2023-10-19T09:18:47;32.17;;;17.65;;
82727;SDS011;72459;50.110;8.750;2023-10-19T09:21:17;32.70;;;16.92;;
82727;SDS011;72459;50.110;8.750;2023-10-19T09:23:50;29.88;;;16.00;;
82727;SDS011;72459;50.110;8.750;2023-10-19T09:26:16;32.58;;;17.60;;
82727;SDS011;72459;50.110;8.750;2023-10-19T09:28:45;33.20;;;16.83;;
82727;SDS011;72459;50.110;8.750;2023-10-19T09:31:13;31.50;;;15.65;;
82727;SDS011;72459;50.110;8.750;2023-10-19T09:33:40;32.15;;;16.02;;
82727;SDS011;72459;50.110;8.750;2023-10-19T09:36:06;37.50;;;20.23;;
82727;SDS011;72459;50.110;8.750;2023-10-19T09:38:38;35.42;;;18.42;;
82727;SDS011;72459;50.110;8.750;2023-10-19T09:41:16;41.30;;;22.33;;
82727;SDS011;72459;50.110;8.750;2023-10-19T09:43:43;41.85;;;20.10;;
82727;SDS011;72459;50.110;8.750;2023-10-19T09:46:11;32.10;;;16.65;;
82727;SDS011;72459;50.110;8.750;2023-10-19T09:48:41;32.50;;;16.45;;
82727;SDS011;72459;50.110;8.750;2023-10-19T09:51:10;32.40;;;16.95;;
82727;SDS011;72459;50.110;8.750;2023-10-19T09:53:37;30.17;;;16.65;;
82727;SDS011;72459;50.110;8.750;2023-10-19T09:56:08;34.80;;;18.25;;
82727;SDS011;72459;50.110;8.750;2023-10-19T09:58:44;33.47;;;17.27;;
82727;SDS011;72459;50.110;8.750;2023-10-19T10:01:12;35.90;;;18.48;;
82727;SDS011;72459;50.110;8.750;2023-10-19T10:06:16;36.30;;;18.73;;
82727;SDS011;72459;50.110;8.750;2023-10-19T10:09:02;33.25;;;18.42;;
82727;SDS011;72459;50.110;8.750;2023-10-19T10:11:28;45.83;;;21.98;;
82727;SDS011;72459;50.110;8.750;2023-10-19T10:13:57;44.45;;;22.17;;
82727;SDS011;72459;50.110;8.750;2023-10-19T10:16:24;39.63;;;21.70;;
82727;SDS011;72459;50.110;8.750;2023-10-19T10:19:02;52.45;;;31.13;;
82727;SDS011;72459;50.110;8.750;2023-10-19T10:21:29;43.10;;;24.67;;
82727;SDS011;72459;50.110;8.750;2023-10-19T10:23:56;36.08;;;20.67;;
82727;SDS011;72459;50.110;8.750;2023-10-19T10:26:28;34.42;;;18.30;;
82727;SDS011;72459;50.110;8.750;2023-10-19T10:31:56;35.47;;;19.85;;
82727;SDS011;72459;50.110;8.750;2023-10-19T10:37:10;30.00;;;16.85;;
82727;SDS011;72459;50.110;8.750;2023-10-19T10:39:38;33.25;;;16.20;;
82727;SDS011;72459;50.110;8.750;2023-10-19T10:42:06;25.63;;;15.93;;
82727;SDS011;72459;50.110;8.750;2023-10-19T10:44:44;27.38;;;14.93;;
82727;SDS011;72459;50.110;8.750;2023-10-19T10:47:11;26.35;;;14.15;;
82727;SDS011;72459;50.110;8.750;2023-10-19T10:49:48;23.98;;;13.77;;
82727;SDS011;72459;50.110;8.750;2023-10-19T10:54:57;26.42;;;14.40;;
82727;SDS011;72459;50.110;8.750;2023-10-19T10:57:29;24.45;;;14.25;;
82727;SDS011;72459;50.110;8.750;2023-10-19T11:00:03;23.42;;;14.23;;
82727;SDS011;72459;50.110;8.750;2023-10-19T11:02:35;27.40;;;15.50;;
82727;SDS011;72459;50.110;8.750;2023-10-19T11:05:01;29.58;;;17.27;;
82727;SDS011;72459;50.110;8.750;2023-10-19T11:07:28;24.20;;;15.30;;
82727;SDS011;72459;50.110;8.750;2023-10-19T11:09:53;26.73;;;15.57;;
82727;SDS011;72459;50.110;8.750;2023-10-19T11:12:19;25.85;;;16.13;;
82727;SDS011;72459;50.110;8.750;2023-10-19T11:14:55;29.60;;;17.50;;
82727;SDS011;72459;50.110;8.750;2023-10-19T11:17:24;29.30;;;17.52;;
82727;SDS011;72459;50.110;8.750;2023-10-19T11:19:58;27.88;;;17.88;;
82727;SDS011;72459;50.110;8.750;2023-10-19T11:22:25;31.40;;;18.45;;
82727;SDS011;72459;50.110;8.750;2023-10-19T11:24:54;27.05;;;16.17;;
82727;SDS011;72459;50.110;8.750;2023-10-19T11:27:24;29.63;;;16.35;;
82727;SDS011;72459;50.110;8.750;2023-10-19T11:29:56;28.52;;;17.15;;
82727;SDS011;72459;50.110;8.750;2023-10-19T11:32:23;27.27;;;16.27;;
82727;SDS011;72459;50.110;8.750;2023-10-19T11:34:54;27.92;;;16.80;;
82727;SDS011;72459;50.110;8.750;2023-10-19T11:37:21;26.63;;;15.40;;
82727;SDS011;72459;50.110;8.750;2023-10-19T11:39:47;27.38;;;16.08;;
82727;SDS011;72459;50.110;8.750;2023-10-19T11:42:14;25.20;;;16.25;;
82727;SDS011;72459;50.110;8.750;2023-10-19T11:44:40;26.38;;;16.33;;
82727;SDS011;72459;50.110;8.750;2023-10-19T11:47:07;23.27;;;14.68;;
82727;SDS011;72459;50.110;8.750;2023-10-19T11:49:33;34.72;;;16.52;;
82727;SDS011;72459;50.110;8.750;2023-10-19T11:51:58;25.23;;;15.55;;
82727;SDS011;72459;50.110;8.750;2023-10-19T11:54:24;25.57;;;15.53;;
82727;SDS011;72459;50.110;8.750;2023-10-19T11:56:51;27.33;;;15.82;;
82727;SDS011;72459;50.110;8.750;2023-10-19T11:59:18;26.95;;;15.77;;
82727;SDS011;72459;50.110;8.750;2023-10-19T12:01:43;28.98;;;17.40;;
82727;SDS011;72459;50.110;8.750;2023-10-19T12:04:09;33.35;;;17.60;;
82727;SDS011;72459;50.110;8.750;2023-10-19T12:06:34;26.95;;;16.45;;
82727;SDS011;72459;50.110;8.750;2023-10-19T12:09:00;26.88;;;15.45;;
82727;SDS011;72459;50.110;8.750;2023-10-19T12:11:31;27.08;;;16.02;;
82727;SDS011;72459;50.110;8.750;2023-10-19T12:13:56;26.52;;;15.65;;
82727;SDS011;72459;50.110;8.750;2023-10-19T12:16:24;23.25;;;15.80;;
82727;SDS011;72459;50.110;8.750;2023-10-19T12:18:49;28.42;;;16.02;;
82727;SDS011;72459;50.110;8.750;2023-10-19T12:21:15;26.23;;;16.17;;
82727;SDS011;72459;50.110;8.750;2023-10-19T12:23:43;24.98;;;14.73;;
82727;SDS011;72459;50.110;8.750;2023-10-19T12:26:09;26.83;;;15.80;;
82727;SDS011;72459;50.110;8.750;2023-10-19T12:28:40;25.63;;;15.98;;
82727;SDS011;72459;50.110;8.750;2023-10-19T12:31:06;25.83;;;15.63;;
82727;SDS011;72459;50.110;8.750;2023-10-19T12:33:34;32.97;;;17.60;;
82727;SDS011;72459;50.110;8.750;2023-10-19T12:36:01;30.80;;;16.63;;
82727;SDS011;72459;50.110;8.750;2023-10-19T12:38:26;33.17;;;17.83;;
82727;SDS011;72459;50.110;8.750;2023-10-19T12:40:52;31.52;;;17.63;;
82727;SDS011;72459;50.110;8.750;2023-10-19T12:43:18;29.23;;;16.58;;
82727;SDS011;72459;50.110;8.750;2023-10-19T12:45:44;33.95;;;18.00;;
82727;SDS011;72459;50.110;8.750;2023-10-19T12:48:15;30.20;;;17.08;;
82727;SDS011;72459;50.110;8.750;2023-10-19T12:50:41;33.58;;;18.48;;
82727;SDS011;72459;50.110;8.750;2023-10-19T12:53:07;32.65;;;17.38;;
82727;SDS011;72459;50.110;8.750;2023-10-19T12:55:33;34.20;;;18.05;;
82727;SDS011;72459;50.110;8.750;2023-10-19T12:57:59;35.05;;;18.30;;
82727;SDS011;72459;50.110;8.750;2023-10-19T13:00:32;29.27;;;16.98;;
82727;SDS011;72459;50.110;8.750;2023-10-19T13:03:04;33.45;;;17.83;;
82727;SDS011;72459;50.110;8.750;2023-10-19T13:05:36;34.42;;;19.02;;
82727;SDS011;72459;50.110;8.750;2023-10-19T13:08:05;31.60;;;16.50;;
82727;SDS011;72459;50.110;8.750;2023-10-19T13:10:38;34.35;;;19.45;;
82727;SDS011;72459;50.110;8.750;2023-10-19T13:13:11;32.88;;;18.15;;
82727;SDS011;72459;50.110;8.750;2023-10-19T13:15:38;32.33;;;17.20;;
82727;SDS011;72459;50.110;8.750;2023-10-19T13:18:06;31.90;;;17.48;;
82727;SDS011;72459;50.110;8.750;2023-10-19T13:20:35;33.17;;;18.02;;
82727;SDS011;72459;50.110;8.750;2023-10-19T13:23:03;34.95;;;18.42;;
82727;SDS011;72459;50.110;8.750;2023-10-19T13:25:32;32.65;;;18.58;;
82727;SDS011;72459;50.110;8.750;2023-10-19T13:28:20;29.20;;;16.98;;
82727;SDS011;72459;50.110;8.750;2023-10-19T13:30:50;31.10;;;16.85;;
82727;SDS011;72459;50.110;8.750;2023-10-19T13:33:16;34.30;;;17.52;;
82727;SDS011;72459;50.110;8.750;2023-10-19T13:35:43;31.80;;;17.88;;
82727;SDS011;72459;50.110;8.750;2023-10-19T13:38:10;33.97;;;18.80;;
82727;SDS011;72459;50.110;8.750;2023-10-19T13:40:40;30.90;;;17.35;;
82727;SDS011;72459;50.110;8.750;2023-10-19T13:43:07;36.22;;;18.23;;
82727;SDS011;72459;50.110;8.750;2023-10-19T13:45:39;34.20;;;17.98;;
82727;SDS011;72459;50.110;8.750;2023-10-19T13:48:06;42.05;;;19.92;;
82727;SDS011;72459;50.110;8.750;2023-10-19T13:50:32;42.97;;;21.67;;
82727;SDS011;72459;50.110;8.750;2023-10-19T13:52:59;43.83;;;20.55;;
82727;SDS011;72459;50.110;8.750;2023-10-19T13:55:30;39.88;;;19.85;;
82727;SDS011;72459;50.110;8.750;2023-10-19T13:57:56;38.25;;;20.48;;
82727;SDS011;72459;50.110;8.750;2023-10-19T14:00:23;40.63;;;20.42;;
82727;SDS011;72459;50.110;8.750;2023-10-19T14:02:55;40.40;;;20.30;;
82727;SDS011;72459;50.110;8.750;2023-10-19T14:05:22;39.22;;;20.92;;
82727;SDS011;72459;50.110;8.750;2023-10-19T14:07:50;39.03;;;20.55;;
82727;SDS011;72459;50.110;8.750;2023-10-19T14:10:16;38.60;;;20.13;;
82727;SDS011;72459;50.110;8.750;2023-10-19T14:12:44;44.33;;;21.38;;
82727;SDS011;72459;50.110;8.750;2023-10-19T14:15:15;41.35;;;20.27;;
82727;SDS011;72459;50.110;8.750;2023-10-19T14:17:43;43.97;;;22.75;;
82727;SDS011;72459;50.110;8.750;2023-10-19T14:20:11;46.63;;;22.10;;
82727;SDS011;72459;50.110;8.750;2023-10-19T14:22:48;40.30;;;20.25;;
82727;SDS011;72459;50.110;8.750;2023-10-19T14:25:14;48.47;;;22.58;;
82727;SDS011;72459;50.110;8.750;2023-10-19T14:27:42;42.42;;;20.83;;
82727;SDS011;72459;50.110;8.750;2023-10-19T14:30:08;40.13;;;20.98;;
82727;SDS011;72459;50.110;8.750;2023-10-19T14:32:37;40.80;;;19.75;;
82727;SDS011;72459;50.110;8.750;2023-10-19T14:35:04;36.65;;;20.67;;
82727;SDS011;72459;50.110;8.750;2023-10-19T14:37:31;44.58;;;21.00;;
82727;SDS011;72459;50.110;8.750;2023-10-19T14:39:56;38.92;;;20.45;;
82727;SDS011;72459;50.110;8.750;2023-10-19T14:42:24;36.92;;;18.67;;
82727;SDS011;72459;50.110;8.750;2023-10-19T14:44:49;38.55;;;20.48;;
82727;SDS011;72459;50.110;8.750;2023-10-19T14:47:15;36.38;;;18.73;;
82727;SDS011;72459;50.110;8.750;2023-10-19T14:49:40;41.15;;;19.30;;